• Join FlightAware (Why Join?)
  • Login
  • US Flag 
05:32AM EST


 

Airport Tracker/Info


-or-


 

Live Flight TrackerFlight Track Log ✈ UCA3596 ✈ 15-Oct-2013 ✈ KIAD - KBGM

Flight Track Log - Related Links

Times and Time Zones

All times are in EDT time to prevent confusion due to time zone crossing. See the UCA3596 flight status page for this flight to view local times or setup timezone preferences in your user account.

Time Position Orientation Groundspeed Altitude Reporting Facility
EDT Latitude Longitude Course Direction KTS MPH feet Rate Location/Type
01:11PM 39.3385 -77.2903 19° North  Level Estimated
01:12PM 39.4002 -77.2633 19° North  Level Estimated
01:13PM 39.4620 -77.2363 19° North  Level Estimated
01:14PM 39.5238 -77.2092 19° North  Level Estimated
01:15PM 39.5855 -77.1821 19° North  Level Estimated
01:16PM 39.6473 -77.1549 19° North  Level Estimated
01:17PM 39.7090 -77.1277 19° North  Level Estimated
01:18PM 39.7707 -77.1004 19° North  Level Estimated
01:19PM 39.8325 -77.0731 19° North  Level Estimated
01:20PM 39.8942 -77.0457 19° North  Level Estimated
01:21PM 39.9559 -77.0183 19° North  Level Estimated
01:22PM 40.0176 -76.9908 19° North  Level Estimated
01:23PM 40.0793 -76.9633 19° North  Level Estimated
01:24PM 40.1410 -76.9357 19° North  Level Estimated
01:25PM 40.2027 -76.9081 19° North  Level Estimated
01:26PM 40.2643 -76.8804 19° North  Level Estimated
01:27PM 40.3260 -76.8527 19° North  Level Estimated
01:28PM 40.3877 -76.8249 19° North  Level Estimated
01:29PM 40.4493 -76.7971 19° North  Level Estimated
01:30PM 40.5110 -76.7692 19° North  Level Estimated
01:31PM 40.5726 -76.7413 19° North  Level Estimated
01:32PM 40.6343 -76.7133 19° North  Level Estimated
01:33PM 40.6959 -76.6853 19° North  Level Estimated
01:34PM 40.7575 -76.6572 19° North  Level Estimated
01:35PM 40.8192 -76.6291 19° North  Level Estimated
01:36PM 40.8808 -76.6009 19° North  Level Estimated
01:37PM 40.9424 -76.5727 19° North  Level Estimated
01:38PM 41.0040 -76.5444 19° North  Level Estimated
01:39PM 41.0656 -76.5160 19° North  Level Estimated
01:40PM 41.1271 -76.4876 19° North  Level Estimated
01:41PM 41.1887 -76.4592 19° North  Level Estimated
01:42PM 41.2503 -76.4307 19° North  Level Estimated
01:43PM 41.3119 -76.4021 19° North  Level Estimated
01:44PM 41.3734 -76.3735 19° North  Level Estimated
01:45PM 41.4350 -76.3448 19° North  Level Estimated
01:46PM 41.4965 -76.3161 19° North  Level Estimated
01:47PM 41.5580 -76.2874 19° North  Level Estimated
01:48PM 41.6196 -76.2585 19° North  Level Estimated
01:49PM 41.6811 -76.2297 19° North  Level Estimated
01:50PM 41.7426 -76.2007 19° North  Level Estimated
01:51PM 41.8041 -76.1717 19° North  Level Estimated
01:52PM 41.8656 -76.1427 19° North  Level Estimated
01:53PM 41.9271 -76.1135 19° North  Level Estimated
01:54PM 41.9886 -76.0844 19° North  Level Estimated
01:55PM 42.0500 -76.0552 19° North  Level Estimated
01:56PM 42.1115 -76.0259 19° North  Level Estimated
01:57PM 42.1730 -75.9966 19° North  Level Estimated
01:58PM 42.2084 -75.9796 19° North  Level Estimated
01:59PM 42.2084 -75.9796 35° Northeast  Level Estimated
02:00PM 42.2084 -75.9796 35° Northeast  Level Estimated
02:01PM 42.2084 -75.9796 35° Northeast  Level Estimated
02:02PM 42.2084 -75.9796 35° Northeast  Level Estimated
02:03PM 42.2084 -75.9796 35° Northeast  Level Estimated
02:04PM 42.2084 -75.9796 35° Northeast  Level Estimated
02:05PM 42.2084 -75.9796 35° Northeast  Level Estimated
02:06PM 42.2084 -75.9796 35° Northeast  Level Estimated
02:07PM 42.2084 -75.9796 35° Northeast  Level Estimated
02:08PM 42.2084 -75.9796 35° Northeast  Level Estimated
02:09PM 42.2084 -75.9796 35° Northeast  Level Estimated
02:10PM 42.2084 -75.9796 35° Northeast  Level Estimated